createdAt,value
2023-03-05T00:00:21.886Z,2.00
2023-03-05T00:05:45.856Z,2.70
2023-03-05T00:11:01.054Z,2.30
2023-03-05T00:16:10.006Z,2.40
2023-03-05T00:21:26.017Z,2.10
2023-03-05T00:26:31.160Z,1.90
2023-03-05T00:31:36.975Z,2.10
2023-03-05T00:36:42.998Z,2.30
2023-03-05T00:41:47.234Z,1.90
2023-03-05T00:46:51.633Z,2.10
2023-03-05T00:51:55.682Z,1.80
2023-03-05T00:56:59.761Z,2.10
2023-03-05T01:02:04.120Z,2.70
2023-03-05T01:07:08.416Z,2.80
2023-03-05T01:12:12.342Z,3.40
2023-03-05T01:17:16.267Z,2.00
2023-03-05T01:22:20.310Z,2.60
2023-03-05T01:27:24.426Z,2.20
2023-03-05T01:32:28.428Z,2.30
2023-03-05T01:37:33.011Z,2.30
2023-03-05T01:42:37.033Z,2.20
2023-03-05T01:47:41.366Z,2.40
2023-03-05T01:52:50.975Z,2.40
2023-03-05T01:58:01.568Z,2.40
2023-03-05T02:03:08.402Z,2.50
2023-03-05T02:08:16.954Z,2.20
2023-03-05T02:13:28.881Z,3.10
2023-03-05T02:18:33.317Z,2.40
2023-03-05T02:23:39.111Z,2.50
2023-03-05T02:28:50.866Z,2.70
2023-03-05T02:39:01.422Z,2.20
2023-03-05T02:44:05.648Z,2.30
2023-03-05T02:49:09.581Z,2.10
2023-03-05T02:54:14.022Z,1.60
2023-03-05T02:59:18.472Z,2.40
2023-03-05T03:04:23.214Z,2.10
2023-03-05T03:09:27.393Z,1.90
2023-03-05T03:14:33.671Z,2.20
2023-03-05T03:19:38.481Z,2.10
2023-03-05T03:24:44.956Z,1.80
2023-03-05T03:29:48.903Z,1.90
2023-03-05T03:34:52.982Z,1.90
2023-03-05T03:39:57.186Z,2.10
2023-03-05T03:45:02.828Z,1.90
2023-03-05T03:50:07.393Z,1.70
2023-03-05T03:55:11.934Z,1.80
2023-03-05T04:00:16.679Z,1.90
2023-03-05T04:05:20.625Z,1.90
2023-03-05T04:10:25.361Z,1.90
2023-03-05T04:15:29.198Z,1.70
2023-03-05T04:20:33.326Z,1.60
2023-03-05T04:25:37.370Z,1.50
2023-03-05T04:30:41.384Z,1.60
2023-03-05T04:35:45.465Z,1.50
2023-03-05T04:40:49.441Z,1.60
2023-03-05T04:45:55.539Z,1.60
2023-03-05T04:50:59.681Z,1.50
2023-03-05T04:56:04.408Z,1.80
2023-03-05T05:01:08.444Z,1.50
2023-03-05T05:06:12.800Z,1.50
2023-03-05T05:11:16.712Z,1.40
2023-03-05T05:16:20.783Z,1.40
2023-03-05T05:21:24.893Z,1.90
2023-03-05T05:26:28.889Z,1.30
2023-03-05T05:31:32.997Z,1.20
2023-03-05T05:36:37.190Z,1.40
2023-03-05T05:41:41.046Z,1.40
2023-03-05T05:46:45.151Z,1.20
2023-03-05T05:51:49.272Z,1.30
2023-03-05T05:56:53.318Z,1.30
2023-03-05T06:01:57.492Z,1.30
2023-03-05T06:07:01.684Z,1.30
2023-03-05T06:12:06.444Z,1.40
2023-03-05T06:17:12.880Z,1.40
2023-03-05T06:22:18.904Z,1.50
2023-03-05T06:27:22.942Z,1.10
2023-03-05T06:32:27.102Z,1.10
2023-03-05T06:37:31.212Z,1.20
2023-03-05T06:42:35.629Z,1.30
2023-03-05T06:47:39.583Z,1.10
2023-03-05T06:52:43.812Z,1.20
2023-03-05T06:57:47.887Z,1.20
2023-03-05T07:02:51.984Z,1.20
2023-03-05T07:07:56.114Z,1.20
2023-03-05T07:13:00.144Z,1.30
2023-03-05T07:18:04.290Z,1.30
2023-03-05T07:23:08.315Z,1.50
2023-03-05T07:28:12.362Z,1.60
2023-03-05T07:33:16.390Z,1.40
2023-03-05T07:38:20.825Z,1.10
2023-03-05T07:43:24.769Z,1.50
2023-03-05T07:48:28.999Z,1.60
2023-03-05T07:53:33.024Z,1.20
2023-03-05T07:58:37.249Z,1.40
2023-03-05T08:03:42.853Z,1.80
2023-03-05T08:08:46.846Z,2.00
2023-03-05T08:13:51.185Z,1.40
2023-03-05T08:18:57.242Z,1.60
2023-03-05T08:24:06.002Z,1.70
2023-03-05T08:29:10.758Z,1.50
2023-03-05T08:34:14.485Z,1.50
2023-03-05T08:39:19.040Z,1.30
2023-03-05T08:44:24.102Z,1.20
2023-03-05T08:49:28.217Z,1.40
2023-03-05T08:54:32.142Z,1.30
2023-03-05T08:59:36.242Z,1.30
2023-03-05T09:04:40.335Z,1.40
2023-03-05T09:09:44.241Z,2.50
2023-03-05T09:14:48.076Z,3.20
2023-03-05T09:19:51.869Z,1.90
2023-03-05T09:24:55.846Z,2.00
2023-03-05T09:29:59.563Z,1.70
2023-03-05T09:35:03.691Z,1.90
2023-03-05T09:40:08.348Z,1.40
2023-03-05T09:45:36.054Z,1.50
2023-03-05T09:50:47.504Z,1.50
2023-03-05T09:55:56.877Z,1.60
2023-03-05T10:01:05.519Z,1.70
2023-03-05T10:06:20.821Z,1.80
2023-03-05T10:11:43.354Z,1.70
2023-03-05T10:16:53.457Z,1.60
2023-03-05T10:22:19.891Z,2.20
2023-03-05T10:27:54.609Z,2.40
2023-03-05T10:33:08.367Z,1.80
2023-03-05T10:38:20.129Z,1.90
2023-03-05T10:43:42.537Z,2.20
2023-03-05T10:48:55.078Z,2.30
2023-03-05T10:54:29.487Z,2.00
2023-03-05T10:59:34.233Z,2.30
2023-03-05T11:04:40.914Z,2.00
2023-03-05T11:10:18.753Z,3.40
2023-03-05T11:15:30.725Z,2.90
2023-03-05T11:20:37.288Z,2.70
2023-03-05T11:25:54.322Z,2.60
2023-03-05T11:31:22.220Z,2.60
2023-03-05T11:36:51.261Z,3.00
2023-03-05T11:42:01.788Z,2.70
2023-03-05T11:47:25.210Z,3.40
2023-03-05T11:52:32.504Z,5.30
2023-03-05T11:58:06.172Z,5.90
2023-03-05T12:03:17.987Z,5.20
2023-03-05T12:13:47.770Z,5.80
2023-03-05T12:19:06.315Z,4.80
2023-03-05T12:24:28.421Z,6.60
2023-03-05T12:29:46.626Z,5.20
2023-03-05T12:35:04.809Z,4.40
2023-03-05T12:40:29.190Z,5.30
2023-03-05T12:45:39.439Z,4.60
2023-03-05T12:50:47.280Z,4.10
2023-03-05T12:55:59.887Z,4.30
2023-03-05T13:01:21.339Z,4.40
2023-03-05T13:06:33.006Z,4.60
2023-03-05T13:11:40.521Z,4.70
2023-03-05T13:16:45.647Z,5.70
2023-03-05T13:22:02.805Z,4.30
2023-03-05T13:27:40.838Z,4.10
2023-03-05T13:32:46.616Z,4.10
2023-03-05T13:37:53.322Z,4.30
2023-03-05T13:43:21.446Z,4.10
2023-03-05T13:48:28.269Z,4.30
2023-03-05T13:53:34.819Z,4.00
2023-03-05T13:58:49.855Z,3.70
2023-03-05T14:04:18.101Z,3.30
2023-03-05T14:09:29.635Z,3.00
2023-03-05T14:14:39.247Z,3.20
2023-03-05T14:19:44.964Z,3.30
2023-03-05T14:24:54.792Z,2.90
2023-03-05T14:30:00.874Z,3.20
2023-03-05T14:35:07.633Z,3.20
2023-03-05T14:40:16.099Z,3.10
2023-03-05T14:45:44.011Z,2.70
2023-03-05T14:50:57.269Z,3.50
2023-03-05T14:56:03.350Z,3.70
2023-03-05T15:01:16.916Z,2.40
2023-03-05T15:06:31.577Z,3.00
2023-03-05T15:11:37.789Z,3.10
2023-03-05T15:16:46.436Z,2.80
2023-03-05T15:21:52.977Z,3.00
2023-03-05T15:26:58.354Z,3.00
2023-03-05T15:32:06.046Z,2.80
2023-03-05T15:37:12.864Z,2.40
2023-03-05T15:42:21.176Z,2.80
2023-03-05T15:47:27.580Z,7.00
2023-03-05T15:52:34.297Z,7.50
2023-03-05T15:57:46.137Z,6.30
2023-03-05T16:02:59.505Z,5.10
2023-03-05T16:08:06.155Z,5.40
2023-03-05T16:13:18.032Z,5.50
2023-03-05T16:18:35.581Z,5.60
2023-03-05T16:23:41.235Z,5.90
2023-03-05T16:28:49.491Z,4.20
2023-03-05T16:33:58.145Z,4.80
2023-03-05T16:39:08.295Z,4.30
2023-03-05T16:44:15.282Z,4.30
2023-03-05T16:49:23.622Z,3.80
2023-03-05T16:54:30.889Z,3.80
2023-03-05T16:59:38.928Z,4.10
2023-03-05T17:04:45.581Z,4.10
2023-03-05T17:09:53.885Z,3.60
2023-03-05T17:15:02.100Z,4.80
2023-03-05T17:20:09.544Z,3.40
2023-03-05T17:25:20.505Z,3.00
2023-03-05T17:30:32.420Z,3.20
2023-03-05T17:35:42.688Z,3.70
2023-03-05T17:40:50.868Z,3.10
2023-03-05T17:46:00.483Z,2.90
2023-03-05T17:51:14.659Z,3.90
2023-03-05T17:56:23.417Z,3.20
2023-03-05T18:01:35.828Z,2.90
2023-03-05T18:06:44.086Z,3.80
2023-03-05T18:11:53.233Z,4.10
2023-03-05T18:17:00.783Z,3.10
2023-03-05T18:22:07.281Z,2.90
2023-03-05T18:27:15.983Z,3.30
2023-03-05T18:32:31.796Z,3.00
2023-03-05T18:37:41.198Z,3.30
2023-03-05T18:42:49.546Z,3.70
2023-03-05T18:47:59.937Z,3.20
2023-03-05T18:53:06.427Z,3.00
2023-03-05T18:58:16.817Z,3.10
2023-03-05T19:03:23.317Z,3.80
2023-03-05T19:08:30.107Z,3.50
2023-03-05T19:13:41.017Z,3.80
2023-03-05T19:19:06.684Z,3.40
2023-03-05T19:24:13.224Z,3.10
2023-03-05T19:29:19.921Z,3.20
2023-03-05T19:34:26.023Z,2.90
2023-03-05T19:39:36.305Z,3.90
2023-03-05T19:44:47.278Z,3.00
2023-03-05T19:49:59.749Z,3.60
2023-03-05T19:55:16.972Z,3.20
2023-03-05T20:00:27.489Z,2.90
2023-03-05T20:12:20.286Z,2.90
2023-03-05T20:17:34.758Z,3.30
2023-03-05T20:22:44.819Z,3.10
2023-03-05T20:33:26.160Z,3.20
2023-03-05T20:38:34.684Z,3.30
2023-03-05T20:43:51.751Z,3.20
2023-03-05T20:49:24.251Z,3.10
2023-03-05T20:55:07.564Z,3.40
2023-03-05T21:00:13.661Z,4.60
2023-03-05T21:05:21.148Z,4.20
2023-03-05T21:10:28.584Z,4.20
2023-03-05T21:15:37.514Z,4.40
2023-03-05T21:20:42.905Z,4.40
2023-03-05T21:25:48.537Z,4.60
2023-03-05T21:30:56.062Z,3.90
2023-03-05T21:36:01.611Z,3.70
2023-03-05T21:41:07.178Z,4.00
2023-03-05T21:46:14.131Z,4.00
2023-03-05T21:51:19.002Z,4.10
2023-03-05T21:56:25.634Z,4.40
2023-03-05T22:01:31.084Z,4.10
2023-03-05T22:06:36.217Z,3.60
2023-03-05T22:11:44.389Z,6.20
2023-03-05T22:16:52.372Z,4.60
2023-03-05T22:21:58.041Z,4.40
2023-03-05T22:27:02.481Z,4.40
2023-03-05T22:32:06.739Z,3.60
2023-03-05T22:37:10.860Z,3.90
2023-03-05T22:42:14.971Z,3.70
2023-03-05T22:47:19.010Z,3.70
2023-03-05T22:52:23.357Z,3.40
2023-03-05T22:57:27.473Z,3.20
2023-03-05T23:02:32.223Z,3.30
2023-03-05T23:07:38.178Z,3.50
2023-03-05T23:12:46.323Z,3.50
2023-03-05T23:17:50.381Z,3.10
2023-03-05T23:22:56.372Z,3.20
2023-03-05T23:28:00.905Z,4.00
2023-03-05T23:33:06.132Z,3.30
2023-03-05T23:38:14.688Z,3.30
2023-03-05T23:43:20.486Z,3.30
2023-03-05T23:48:26.512Z,2.80
2023-03-05T23:53:33.225Z,3.30
2023-03-05T23:58:38.579Z,3.10
